sensor_id;sensor_type;location;lat;lon;timestamp;pressure;altitude;pressure_sealevel;temperature;humidity
54022;BME280;39936;51.058;17.220;2023-05-31T00:01:40;102459.35;;;8.30;81.25
54022;BME280;39936;51.058;17.220;2023-05-31T00:05:27;102463.72;;;8.27;81.36
54022;BME280;39936;51.058;17.220;2023-05-31T00:08:39;102464.86;;;8.28;81.95
54022;BME280;39936;51.058;17.220;2023-05-31T00:12:11;102468.42;;;8.28;82.25
54022;BME280;39936;51.058;17.220;2023-05-31T00:15:24;102472.48;;;8.26;82.98
54022;BME280;39936;51.058;17.220;2023-05-31T00:18:52;102471.58;;;8.21;83.01
54022;BME280;39936;51.058;17.220;2023-05-31T00:22:06;102475.38;;;8.19;83.22
54022;BME280;39936;51.058;17.220;2023-05-31T00:25:26;102470.64;;;8.15;83.77
54022;BME280;39936;51.058;17.220;2023-05-31T00:29:06;102471.19;;;8.08;87.09
54022;BME280;39936;51.058;17.220;2023-05-31T00:32:43;102469.57;;;7.92;87.74
54022;BME280;39936;51.058;17.220;2023-05-31T00:35:59;102466.17;;;7.85;87.93
54022;BME280;39936;51.058;17.220;2023-05-31T00:39:19;102459.98;;;7.79;87.94
54022;BME280;39936;51.058;17.220;2023-05-31T00:42:46;102468.34;;;7.80;87.81
54022;BME280;39936;51.058;17.220;2023-05-31T00:46:05;102465.19;;;7.76;87.78
54022;BME280;39936;51.058;17.220;2023-05-31T00:49:34;102461.28;;;7.73;87.91
54022;BME280;39936;51.058;17.220;2023-05-31T00:53:22;102460.79;;;7.69;89.71
54022;BME280;39936;51.058;17.220;2023-05-31T00:56:38;102458.27;;;7.65;90.31
54022;BME280;39936;51.058;17.220;2023-05-31T01:00:08;102458.18;;;7.66;90.21
54022;BME280;39936;51.058;17.220;2023-05-31T01:03:55;102461.26;;;7.70;90.44
54022;BME280;39936;51.058;17.220;2023-05-31T01:07:36;102461.72;;;7.73;90.70
54022;BME280;39936;51.058;17.220;2023-05-31T01:14:44;102467.93;;;7.71;90.84
54022;BME280;39936;51.058;17.220;2023-05-31T01:18:06;102469.77;;;7.68;91.03
54022;BME280;39936;51.058;17.220;2023-05-31T01:21:37;102463.17;;;7.63;91.23
54022;BME280;39936;51.058;17.220;2023-05-31T01:28:49;102462.74;;;7.57;91.53
54022;BME280;39936;51.058;17.220;2023-05-31T01:32:03;102466.73;;;7.62;91.95
54022;BME280;39936;51.058;17.220;2023-05-31T01:35:32;102471.55;;;7.61;92.19
54022;BME280;39936;51.058;17.220;2023-05-31T01:38:45;102473.65;;;7.58;92.38
54022;BME280;39936;51.058;17.220;2023-05-31T01:42:03;102475.02;;;7.55;92.20
54022;BME280;39936;51.058;17.220;2023-05-31T01:45:26;102466.65;;;7.48;91.91
54022;BME280;39936;51.058;17.220;2023-05-31T01:48:42;102473.98;;;7.49;91.69
54022;BME280;39936;51.058;17.220;2023-05-31T01:52:15;102475.38;;;7.44;91.53
54022;BME280;39936;51.058;17.220;2023-05-31T01:55:32;102478.14;;;7.40;91.43
54022;BME280;39936;51.058;17.220;2023-05-31T01:59:01;102476.67;;;7.37;91.46
54022;BME280;39936;51.058;17.220;2023-05-31T02:02:43;102478.53;;;7.33;91.35
54022;BME280;39936;51.058;17.220;2023-05-31T02:06:24;102478.59;;;7.29;91.30
54022;BME280;39936;51.058;17.220;2023-05-31T02:09:38;102479.81;;;7.25;91.16
54022;BME280;39936;51.058;17.220;2023-05-31T02:13:24;102488.66;;;7.22;90.99
54022;BME280;39936;51.058;17.220;2023-05-31T02:20:42;102489.84;;;7.18;91.20
54022;BME280;39936;51.058;17.220;2023-05-31T02:23:57;102487.94;;;7.21;91.87
54022;BME280;39936;51.058;17.220;2023-05-31T02:27:35;102496.55;;;7.23;92.17
54022;BME280;39936;51.058;17.220;2023-05-31T02:35:08;102506.27;;;7.19;92.73
54022;BME280;39936;51.058;17.220;2023-05-31T02:38:29;102500.30;;;7.18;93.04
54022;BME280;39936;51.058;17.220;2023-05-31T02:41:46;102481.10;;;7.02;93.46
54022;BME280;39936;51.058;17.220;2023-05-31T02:45:23;102505.62;;;7.16;93.78
54022;BME280;39936;51.058;17.220;2023-05-31T02:48:39;102502.98;;;7.19;94.04
54022;BME280;39936;51.058;17.220;2023-05-31T02:51:54;102503.03;;;7.23;94.40
54022;BME280;39936;51.058;17.220;2023-05-31T02:55:12;102498.68;;;7.30;94.89
54022;BME280;39936;51.058;17.220;2023-05-31T02:58:40;102476.21;;;7.32;96.02
54022;BME280;39936;51.058;17.220;2023-05-31T03:02:27;102501.66;;;7.82;97.83
54022;BME280;39936;51.058;17.220;2023-05-31T03:05:50;102493.30;;;8.37;99.37
54022;BME280;39936;51.058;17.220;2023-05-31T03:09:24;102489.28;;;8.92;99.07
54022;BME280;39936;51.058;17.220;2023-05-31T03:12:40;102478.16;;;9.77;99.26
54022;BME280;39936;51.058;17.220;2023-05-31T03:15:54;102473.95;;;10.61;94.82
54022;BME280;39936;51.058;17.220;2023-05-31T03:19:13;102466.50;;;11.61;91.43
54022;BME280;39936;51.058;17.220;2023-05-31T03:23:18;102453.61;;;12.72;85.69
54022;BME280;39936;51.058;17.220;2023-05-31T03:26:48;102449.54;;;14.23;80.57
54022;BME280;39936;51.058;17.220;2023-05-31T03:30:01;102437.18;;;15.38;73.44
54022;BME280;39936;51.058;17.220;2023-05-31T03:33:21;102437.38;;;16.30;68.40
54022;BME280;39936;51.058;17.220;2023-05-31T03:36:58;102433.90;;;16.92;62.97
54022;BME280;39936;51.058;17.220;2023-05-31T03:40:40;102429.92;;;17.82;60.50
54022;BME280;39936;51.058;17.220;2023-05-31T03:43:57;102419.63;;;18.88;56.89
54022;BME280;39936;51.058;17.220;2023-05-31T03:47:15;102408.66;;;19.77;53.24
54022;BME280;39936;51.058;17.220;2023-05-31T03:50:45;102405.21;;;20.60;51.26
54022;BME280;39936;51.058;17.220;2023-05-31T03:54:16;102393.91;;;21.59;49.38
54022;BME280;39936;51.058;17.220;2023-05-31T03:57:42;102401.83;;;22.83;47.03
54022;BME280;39936;51.058;17.220;2023-05-31T04:01:47;102389.38;;;23.99;44.17
54022;BME280;39936;51.058;17.220;2023-05-31T04:05:15;102388.29;;;24.49;41.73
54022;BME280;39936;51.058;17.220;2023-05-31T04:08:29;102388.70;;;25.16;39.78
54022;BME280;39936;51.058;17.220;2023-05-31T04:11:59;102394.16;;;25.24;38.98
54022;BME280;39936;51.058;17.220;2023-05-31T04:15:21;102399.63;;;24.93;38.32
54022;BME280;39936;51.058;17.220;2023-05-31T04:23:09;102399.17;;;24.70;38.14
54022;BME280;39936;51.058;17.220;2023-05-31T04:26:18;102394.01;;;25.16;37.55
54022;BME280;39936;51.058;17.220;2023-05-31T04:29:59;102386.52;;;24.96;37.13
54022;BME280;39936;51.058;17.220;2023-05-31T04:33:26;102390.28;;;22.57;38.72
54022;BME280;39936;51.058;17.220;2023-05-31T04:36:45;102422.51;;;20.78;42.14
54022;BME280;39936;51.058;17.220;2023-05-31T04:40:10;102433.30;;;18.21;47.44
54022;BME280;39936;51.058;17.220;2023-05-31T04:43:24;102448.62;;;17.49;49.60
54022;BME280;39936;51.058;17.220;2023-05-31T04:46:54;102457.29;;;16.61;51.65
54022;BME280;39936;51.058;17.220;2023-05-31T04:50:07;102469.63;;;15.28;53.99
54022;BME280;39936;51.058;17.220;2023-05-31T04:53:25;102480.86;;;14.37;57.39
54022;BME280;39936;51.058;17.220;2023-05-31T04:57:07;102482.91;;;14.09;60.53
54022;BME280;39936;51.058;17.220;2023-05-31T05:00:22;102478.88;;;13.89;60.17
54022;BME280;39936;51.058;17.220;2023-05-31T05:04:03;102483.83;;;13.99;61.54
54022;BME280;39936;51.058;17.220;2023-05-31T05:07:20;102477.97;;;14.18;61.55
54022;BME280;39936;51.058;17.220;2023-05-31T05:10:37;102480.15;;;14.31;62.54
54022;BME280;39936;51.058;17.220;2023-05-31T05:14:01;102481.29;;;14.55;61.16
54022;BME280;39936;51.058;17.220;2023-05-31T05:17:37;102451.47;;;14.58;60.82
54022;BME280;39936;51.058;17.220;2023-05-31T05:20:54;102475.88;;;14.99;60.44
54022;BME280;39936;51.058;17.220;2023-05-31T05:24:11;102467.03;;;15.30;60.52
54022;BME280;39936;51.058;17.220;2023-05-31T05:27:30;102461.56;;;15.74;60.23
54022;BME280;39936;51.058;17.220;2023-05-31T05:30:48;102457.60;;;16.32;58.78
54022;BME280;39936;51.058;17.220;2023-05-31T05:34:01;102451.52;;;16.48;58.38
54022;BME280;39936;51.058;17.220;2023-05-31T05:37:14;102451.21;;;16.49;56.00
54022;BME280;39936;51.058;17.220;2023-05-31T05:40:30;102445.18;;;16.59;57.54
54022;BME280;39936;51.058;17.220;2023-05-31T05:44:00;102440.87;;;17.01;56.25
54022;BME280;39936;51.058;17.220;2023-05-31T05:51:06;102439.26;;;17.85;51.31
54022;BME280;39936;51.058;17.220;2023-05-31T05:54:48;102446.44;;;17.67;52.56
54022;BME280;39936;51.058;17.220;2023-05-31T05:58:09;102446.41;;;17.64;52.22
54022;BME280;39936;51.058;17.220;2023-05-31T06:01:30;102450.52;;;17.12;52.97
54022;BME280;39936;51.058;17.220;2023-05-31T06:04:57;102458.13;;;16.81;52.85
54022;BME280;39936;51.058;17.220;2023-05-31T06:08:18;102454.32;;;17.09;55.20
54022;BME280;39936;51.058;17.220;2023-05-31T06:11:48;102453.15;;;17.47;54.23
54022;BME280;39936;51.058;17.220;2023-05-31T06:15:16;102445.96;;;18.05;55.54
54022;BME280;39936;51.058;17.220;2023-05-31T06:18:28;102451.30;;;18.57;53.89
54022;BME280;39936;51.058;17.220;2023-05-31T06:21:42;102440.16;;;18.42;54.58
54022;BME280;39936;51.058;17.220;2023-05-31T06:25:03;102447.46;;;18.71;53.92
54022;BME280;39936;51.058;17.220;2023-05-31T06:28:17;102447.30;;;18.94;51.71
54022;BME280;39936;51.058;17.220;2023-05-31T06:32:12;102442.27;;;19.08;54.19
54022;BME280;39936;51.058;17.220;2023-05-31T06:39:21;102425.38;;;19.70;51.13
54022;BME280;39936;51.058;17.220;2023-05-31T06:42:35;102432.30;;;19.65;49.84
54022;BME280;39936;51.058;17.220;2023-05-31T06:49:55;102427.97;;;19.68;52.09
54022;BME280;39936;51.058;17.220;2023-05-31T06:53:09;102427.26;;;19.60;52.52
54022;BME280;39936;51.058;17.220;2023-05-31T06:56:50;102429.84;;;19.90;53.09
54022;BME280;39936;51.058;17.220;2023-05-31T07:00:07;102422.89;;;20.21;49.81
54022;BME280;39936;51.058;17.220;2023-05-31T07:03:22;102421.75;;;20.16;50.31
54022;BME280;39936;51.058;17.220;2023-05-31T07:06:42;102420.34;;;20.29;51.73
54022;BME280;39936;51.058;17.220;2023-05-31T07:09:58;102419.73;;;20.62;49.88
54022;BME280;39936;51.058;17.220;2023-05-31T07:13:46;102420.70;;;20.34;48.73
54022;BME280;39936;51.058;17.220;2023-05-31T07:17:01;102400.11;;;20.34;48.62
54022;BME280;39936;51.058;17.220;2023-05-31T07:20:17;102414.60;;;20.62;47.68
54022;BME280;39936;51.058;17.220;2023-05-31T07:23:33;102415.80;;;21.10;47.62
54022;BME280;39936;51.058;17.220;2023-05-31T07:26:51;102413.91;;;20.90;44.78
54022;BME280;39936;51.058;17.220;2023-05-31T07:30:08;102414.23;;;20.50;47.90
54022;BME280;39936;51.058;17.220;2023-05-31T07:33:48;102408.95;;;20.81;49.33
54022;BME280;39936;51.058;17.220;2023-05-31T07:37:04;102408.52;;;20.74;49.38
54022;BME280;39936;51.058;17.220;2023-05-31T07:40:20;102405.54;;;21.15;49.04
54022;BME280;39936;51.058;17.220;2023-05-31T07:43:40;102404.56;;;21.21;48.40
54022;BME280;39936;51.058;17.220;2023-05-31T07:46:56;102397.22;;;21.40;44.87
54022;BME280;39936;51.058;17.220;2023-05-31T07:50:12;102394.12;;;21.30;47.23
54022;BME280;39936;51.058;17.220;2023-05-31T07:53:51;102393.05;;;21.30;46.43
54022;BME280;39936;51.058;17.220;2023-05-31T07:57:08;102392.30;;;21.17;48.06
54022;BME280;39936;51.058;17.220;2023-05-31T08:00:59;102386.35;;;21.44;45.28
54022;BME280;39936;51.058;17.220;2023-05-31T08:04:16;102382.15;;;21.52;44.01
54022;BME280;39936;51.058;17.220;2023-05-31T08:07:57;102380.67;;;21.44;43.15
54022;BME280;39936;51.058;17.220;2023-05-31T08:11:11;102384.30;;;21.35;41.94
54022;BME280;39936;51.058;17.220;2023-05-31T08:14:44;102384.74;;;21.09;41.96
54022;BME280;39936;51.058;17.220;2023-05-31T08:18:15;102380.81;;;20.81;42.75
54022;BME280;39936;51.058;17.220;2023-05-31T08:28:36;102383.36;;;21.21;42.08
54022;BME280;39936;51.058;17.220;2023-05-31T08:31:50;102359.78;;;20.63;40.97
54022;BME280;39936;51.058;17.220;2023-05-31T08:35:09;102380.85;;;20.63;40.59
54022;BME280;39936;51.058;17.220;2023-05-31T08:38:23;102380.84;;;20.23;42.91
54022;BME280;39936;51.058;17.220;2023-05-31T08:45:11;102376.54;;;20.73;42.07
54022;BME280;39936;51.058;17.220;2023-05-31T08:48:41;102370.27;;;20.96;41.30
54022;BME280;39936;51.058;17.220;2023-05-31T08:52:09;102373.07;;;20.99;42.15
54022;BME280;39936;51.058;17.220;2023-05-31T08:55:27;102386.00;;;21.25;40.03
54022;BME280;39936;51.058;17.220;2023-05-31T08:58:43;102380.59;;;20.92;40.28
54022;BME280;39936;51.058;17.220;2023-05-31T09:02:22;102391.48;;;20.48;40.60
54022;BME280;39936;51.058;17.220;2023-05-31T09:05:37;102389.75;;;20.65;41.63
54022;BME280;39936;51.058;17.220;2023-05-31T09:09:27;102384.43;;;20.16;40.76
54022;BME280;39936;51.058;17.220;2023-05-31T09:13:15;102379.20;;;20.63;41.21
54022;BME280;39936;51.058;17.220;2023-05-31T09:16:25;102365.41;;;20.75;42.88
54022;BME280;39936;51.058;17.220;2023-05-31T09:19:54;102360.91;;;21.12;44.40
54022;BME280;39936;51.058;17.220;2023-05-31T09:23:09;102368.38;;;21.24;40.68
54022;BME280;39936;51.058;17.220;2023-05-31T09:26:53;102364.09;;;21.53;38.79
54022;BME280;39936;51.058;17.220;2023-05-31T09:30:21;102356.89;;;21.53;38.37
54022;BME280;39936;51.058;17.220;2023-05-31T09:33:41;102348.16;;;21.36;40.74
54022;BME280;39936;51.058;17.220;2023-05-31T09:37:00;102351.46;;;21.29;39.49
54022;BME280;39936;51.058;17.220;2023-05-31T09:40:23;102347.71;;;21.52;38.83
54022;BME280;39936;51.058;17.220;2023-05-31T09:44:15;102339.29;;;21.52;39.74
54022;BME280;39936;51.058;17.220;2023-05-31T09:47:41;102337.08;;;21.68;39.36
54022;BME280;39936;51.058;17.220;2023-05-31T09:50:56;102314.42;;;21.24;39.64
54022;BME280;39936;51.058;17.220;2023-05-31T09:54:24;102338.96;;;21.42;39.41
54022;BME280;39936;51.058;17.220;2023-05-31T09:57:55;102345.05;;;20.94;39.85
54022;BME280;39936;51.058;17.220;2023-05-31T10:01:33;102337.12;;;20.98;39.59
54022;BME280;39936;51.058;17.220;2023-05-31T10:04:47;102328.73;;;21.14;39.68
54022;BME280;39936;51.058;17.220;2023-05-31T10:08:00;102321.91;;;21.36;39.87
54022;BME280;39936;51.058;17.220;2023-05-31T10:11:21;102322.36;;;21.64;37.92
54022;BME280;39936;51.058;17.220;2023-05-31T10:15:01;102315.73;;;21.73;37.80
54022;BME280;39936;51.058;17.220;2023-05-31T10:18:33;102314.04;;;21.30;39.14
54022;BME280;39936;51.058;17.220;2023-05-31T10:21:50;102312.95;;;21.39;38.46
54022;BME280;39936;51.058;17.220;2023-05-31T10:25:44;102306.35;;;21.55;37.62
54022;BME280;39936;51.058;17.220;2023-05-31T10:29:12;102302.59;;;21.33;38.47
54022;BME280;39936;51.058;17.220;2023-05-31T10:32:33;102300.56;;;21.52;38.55
54022;BME280;39936;51.058;17.220;2023-05-31T10:36:03;102297.84;;;20.72;38.82
54022;BME280;39936;51.058;17.220;2023-05-31T10:39:31;102301.96;;;20.72;40.57
54022;BME280;39936;51.058;17.220;2023-05-31T10:46:22;102302.00;;;20.78;38.06
54022;BME280;39936;51.058;17.220;2023-05-31T10:49:45;102296.89;;;21.04;38.75
54022;BME280;39936;51.058;17.220;2023-05-31T10:53:10;102264.94;;;20.85;37.94
54022;BME280;39936;51.058;17.220;2023-05-31T10:56:31;102287.48;;;21.31;36.80
54022;BME280;39936;51.058;17.220;2023-05-31T10:59:47;102285.55;;;21.41;36.01
54022;BME280;39936;51.058;17.220;2023-05-31T11:03:24;102289.67;;;21.78;36.43
54022;BME280;39936;51.058;17.220;2023-05-31T11:06:38;102285.41;;;22.05;35.72
54022;BME280;39936;51.058;17.220;2023-05-31T11:09:57;102276.47;;;22.08;36.50
54022;BME280;39936;51.058;17.220;2023-05-31T11:13:54;102267.30;;;22.29;36.62
54022;BME280;39936;51.058;17.220;2023-05-31T11:17:13;102247.94;;;22.39;36.60
54022;BME280;39936;51.058;17.220;2023-05-31T11:20:43;102263.88;;;22.51;37.02
54022;BME280;39936;51.058;17.220;2023-05-31T11:24:55;102263.29;;;22.41;37.05
54022;BME280;39936;51.058;17.220;2023-05-31T11:28:17;102256.38;;;22.18;37.44
54022;BME280;39936;51.058;17.220;2023-05-31T11:31:55;102242.20;;;22.48;38.77
54022;BME280;39936;51.058;17.220;2023-05-31T11:35:53;102248.81;;;22.24;37.83
54022;BME280;39936;51.058;17.220;2023-05-31T11:39:46;102252.99;;;22.29;38.58
54022;BME280;39936;51.058;17.220;2023-05-31T11:43:04;102248.13;;;22.64;36.75
54022;BME280;39936;51.058;17.220;2023-05-31T11:46:22;102243.96;;;22.82;35.74
54022;BME280;39936;51.058;17.220;2023-05-31T11:50:01;102239.98;;;22.89;35.22
54022;BME280;39936;51.058;17.220;2023-05-31T11:53:37;102239.17;;;22.87;34.80
54022;BME280;39936;51.058;17.220;2023-05-31T11:56:58;102229.72;;;22.90;33.55
54022;BME280;39936;51.058;17.220;2023-05-31T12:00:14;102226.14;;;22.65;35.10
54022;BME280;39936;51.058;17.220;2023-05-31T12:04:09;102226.41;;;22.17;35.81
54022;BME280;39936;51.058;17.220;2023-05-31T12:07:53;102224.38;;;22.43;36.48
54022;BME280;39936;51.058;17.220;2023-05-31T12:11:09;102193.15;;;22.57;35.22
54022;BME280;39936;51.058;17.220;2023-05-31T12:14:26;102208.14;;;22.94;35.62
54022;BME280;39936;51.058;17.220;2023-05-31T12:21:31;102216.46;;;22.30;36.54
54022;BME280;39936;51.058;17.220;2023-05-31T12:25:10;102202.97;;;22.65;37.07
54022;BME280;39936;51.058;17.220;2023-05-31T12:28:35;102204.62;;;22.86;34.50
54022;BME280;39936;51.058;17.220;2023-05-31T12:35:45;102192.94;;;22.12;35.29
54022;BME280;39936;51.058;17.220;2023-05-31T12:39:07;102196.55;;;22.05;34.54
54022;BME280;39936;51.058;17.220;2023-05-31T12:42:46;102198.69;;;22.01;36.89
54022;BME280;39936;51.058;17.220;2023-05-31T12:46:01;102195.00;;;22.56;34.61
54022;BME280;39936;51.058;17.220;2023-05-31T12:49:33;102186.34;;;22.80;35.99
54022;BME280;39936;51.058;17.220;2023-05-31T12:52:56;102176.46;;;22.80;35.34
54022;BME280;39936;51.058;17.220;2023-05-31T12:56:25;102175.13;;;22.88;35.07
54022;BME280;39936;51.058;17.220;2023-05-31T13:03:20;102158.23;;;23.12;33.82
54022;BME280;39936;51.058;17.220;2023-05-31T13:07:12;102171.22;;;22.46;35.02
54022;BME280;39936;51.058;17.220;2023-05-31T13:10:28;102166.00;;;22.50;35.26
54022;BME280;39936;51.058;17.220;2023-05-31T13:13:56;102161.64;;;22.79;36.42
54022;BME280;39936;51.058;17.220;2023-05-31T13:17:45;102154.40;;;23.16;34.96
54022;BME280;39936;51.058;17.220;2023-05-31T13:21:02;102155.27;;;23.30;35.57
54022;BME280;39936;51.058;17.220;2023-05-31T13:24:35;102149.73;;;23.40;35.36
54022;BME280;39936;51.058;17.220;2023-05-31T13:27:55;102145.45;;;23.25;35.46
54022;BME280;39936;51.058;17.220;2023-05-31T13:31:17;102142.16;;;23.22;34.63
54022;BME280;39936;51.058;17.220;2023-05-31T13:34:35;102139.46;;;23.22;35.64
54022;BME280;39936;51.058;17.220;2023-05-31T13:37:50;102134.49;;;23.24;35.47
54022;BME280;39936;51.058;17.220;2023-05-31T13:41:07;102116.34;;;23.33;35.32
54022;BME280;39936;51.058;17.220;2023-05-31T13:44:36;102106.93;;;23.41;34.48
54022;BME280;39936;51.058;17.220;2023-05-31T13:48:06;102117.02;;;23.41;34.45
54022;BME280;39936;51.058;17.220;2023-05-31T13:51:22;102115.25;;;23.12;36.83
54022;BME280;39936;51.058;17.220;2023-05-31T13:55:04;102104.02;;;23.36;35.60
54022;BME280;39936;51.058;17.220;2023-05-31T13:58:42;102094.82;;;23.54;34.80
54022;BME280;39936;51.058;17.220;2023-05-31T14:02:06;102101.45;;;23.92;34.59
54022;BME280;39936;51.058;17.220;2023-05-31T14:05:28;102081.72;;;23.90;34.03
54022;BME280;39936;51.058;17.220;2023-05-31T14:09:03;102091.34;;;23.84;35.40
54022;BME280;39936;51.058;17.220;2023-05-31T14:12:54;102087.56;;;23.80;34.76
54022;BME280;39936;51.058;17.220;2023-05-31T14:16:27;102083.66;;;23.80;34.57
54022;BME280;39936;51.058;17.220;2023-05-31T14:19:46;102081.69;;;23.81;34.88
54022;BME280;39936;51.058;17.220;2023-05-31T14:23:10;102083.94;;;23.71;34.49
54022;BME280;39936;51.058;17.220;2023-05-31T14:26:31;102086.66;;;23.58;34.51
54022;BME280;39936;51.058;17.220;2023-05-31T14:29:56;102083.80;;;23.62;34.21
54022;BME280;39936;51.058;17.220;2023-05-31T14:33:15;102074.42;;;23.75;34.36
54022;BME280;39936;51.058;17.220;2023-05-31T14:36:37;102069.55;;;23.58;34.89
54022;BME280;39936;51.058;17.220;2023-05-31T14:40:18;102052.09;;;23.23;35.26
54022;BME280;39936;51.058;17.220;2023-05-31T14:44:08;102060.34;;;23.19;35.14
54022;BME280;39936;51.058;17.220;2023-05-31T14:47:36;102053.75;;;23.33;35.34
54022;BME280;39936;51.058;17.220;2023-05-31T14:51:05;102048.29;;;23.85;34.95
54022;BME280;39936;51.058;17.220;2023-05-31T14:54:25;102045.18;;;23.97;34.37
54022;BME280;39936;51.058;17.220;2023-05-31T15:02:03;102045.95;;;23.52;34.58
54022;BME280;39936;51.058;17.220;2023-05-31T15:05:24;102038.48;;;23.82;34.57
54022;BME280;39936;51.058;17.220;2023-05-31T15:08:40;102036.56;;;24.05;33.93
54022;BME280;39936;51.058;17.220;2023-05-31T15:11:59;102032.97;;;24.14;34.00
54022;BME280;39936;51.058;17.220;2023-05-31T15:15:30;102028.28;;;24.01;34.09
54022;BME280;39936;51.058;17.220;2023-05-31T15:18:48;102031.28;;;24.02;33.66
54022;BME280;39936;51.058;17.220;2023-05-31T15:22:05;102022.20;;;23.89;33.61
54022;BME280;39936;51.058;17.220;2023-05-31T15:25:21;102025.70;;;23.91;33.67
54022;BME280;39936;51.058;17.220;2023-05-31T15:29:04;102020.48;;;23.88;34.68
54022;BME280;39936;51.058;17.220;2023-05-31T15:32:44;102013.23;;;24.09;33.88
54022;BME280;39936;51.058;17.220;2023-05-31T15:36:00;102014.73;;;24.17;34.43
54022;BME280;39936;51.058;17.220;2023-05-31T15:39:16;102012.68;;;23.97;33.51
54022;BME280;39936;51.058;17.220;2023-05-31T15:42:35;102011.18;;;23.67;34.17
54022;BME280;39936;51.058;17.220;2023-05-31T15:45:53;102001.93;;;23.85;34.35
54022;BME280;39936;51.058;17.220;2023-05-31T15:49:19;102003.46;;;24.09;34.70
54022;BME280;39936;51.058;17.220;2023-05-31T15:52:39;102003.06;;;23.49;35.14
54022;BME280;39936;51.058;17.220;2023-05-31T15:55:54;102001.09;;;23.44;35.31
54022;BME280;39936;51.058;17.220;2023-05-31T15:59:57;102000.16;;;23.40;34.58
54022;BME280;39936;51.058;17.220;2023-05-31T16:07:19;101992.20;;;23.40;33.90
54022;BME280;39936;51.058;17.220;2023-05-31T16:10:54;101986.30;;;23.74;33.53
54022;BME280;39936;51.058;17.220;2023-05-31T16:14:11;101981.01;;;23.92;33.24
54022;BME280;39936;51.058;17.220;2023-05-31T16:18:05;101975.60;;;23.39;33.88
54022;BME280;39936;51.058;17.220;2023-05-31T16:21:44;101950.95;;;23.08;34.27
54022;BME280;39936;51.058;17.220;2023-05-31T16:25:11;101973.47;;;23.04;34.61
54022;BME280;39936;51.058;17.220;2023-05-31T16:28:28;101971.46;;;22.94;34.38
54022;BME280;39936;51.058;17.220;2023-05-31T16:31:47;101971.51;;;22.63;34.88
54022;BME280;39936;51.058;17.220;2023-05-31T16:35:47;101969.16;;;22.62;35.56
54022;BME280;39936;51.058;17.220;2023-05-31T16:39:31;101965.11;;;22.79;34.50
54022;BME280;39936;51.058;17.220;2023-05-31T16:42:46;101937.74;;;22.87;35.32
54022;BME280;39936;51.058;17.220;2023-05-31T16:46:00;101959.77;;;23.33;34.22
54022;BME280;39936;51.058;17.220;2023-05-31T16:49:23;101953.67;;;23.48;34.18
54022;BME280;39936;51.058;17.220;2023-05-31T16:52:52;101951.42;;;23.70;33.70
54022;BME280;39936;51.058;17.220;2023-05-31T16:56:53;101951.55;;;23.91;33.24
54022;BME280;39936;51.058;17.220;2023-05-31T17:00:20;101947.05;;;23.81;33.22
54022;BME280;39936;51.058;17.220;2023-05-31T17:07:33;101946.52;;;23.82;34.04
54022;BME280;39936;51.058;17.220;2023-05-31T17:15:01;101943.70;;;23.90;33.31
54022;BME280;39936;51.058;17.220;2023-05-31T17:18:17;101937.62;;;23.90;32.67
54022;BME280;39936;51.058;17.220;2023-05-31T17:21:33;101933.79;;;23.77;33.35
54022;BME280;39936;51.058;17.220;2023-05-31T17:25:08;101932.98;;;23.81;33.03
54022;BME280;39936;51.058;17.220;2023-05-31T17:28:55;101927.91;;;23.83;33.09
54022;BME280;39936;51.058;17.220;2023-05-31T17:32:23;101925.07;;;23.92;33.22
54022;BME280;39936;51.058;17.220;2023-05-31T17:43:30;101911.77;;;24.03;33.10
54022;BME280;39936;51.058;17.220;2023-05-31T17:47:14;101908.58;;;23.92;33.42
54022;BME280;39936;51.058;17.220;2023-05-31T17:50:34;101910.44;;;23.58;33.33
54022;BME280;39936;51.058;17.220;2023-05-31T17:54:05;101908.96;;;23.11;33.61
54022;BME280;39936;51.058;17.220;2023-05-31T18:01:26;101909.06;;;22.65;34.52
54022;BME280;39936;51.058;17.220;2023-05-31T18:04:46;101905.08;;;22.55;34.90
54022;BME280;39936;51.058;17.220;2023-05-31T18:08:08;101908.07;;;22.70;34.71
54022;BME280;39936;51.058;17.220;2023-05-31T18:12:15;101905.15;;;23.06;34.61
54022;BME280;39936;51.058;17.220;2023-05-31T18:16:09;101900.05;;;23.81;36.59
54022;BME280;39936;51.058;17.220;2023-05-31T18:24:22;101882.40;;;25.11;36.50
54022;BME280;39936;51.058;17.220;2023-05-31T18:28:19;101883.43;;;25.07;36.90
54022;BME280;39936;51.058;17.220;2023-05-31T18:31:34;101879.27;;;24.92;37.85
54022;BME280;39936;51.058;17.220;2023-05-31T18:35:35;101885.88;;;24.35;38.06
54022;BME280;39936;51.058;17.220;2023-05-31T18:38:50;101887.20;;;23.92;38.70
54022;BME280;39936;51.058;17.220;2023-05-31T18:42:24;101892.50;;;23.58;40.49
54022;BME280;39936;51.058;17.220;2023-05-31T18:53:17;101904.13;;;21.51;43.55
54022;BME280;39936;51.058;17.220;2023-05-31T18:56:37;101907.25;;;20.84;45.35
54022;BME280;39936;51.058;17.220;2023-05-31T19:00:14;101917.02;;;20.25;45.77
54022;BME280;39936;51.058;17.220;2023-05-31T19:03:31;101919.94;;;19.66;46.74
54022;BME280;39936;51.058;17.220;2023-05-31T19:06:52;101917.83;;;19.18;47.08
54022;BME280;39936;51.058;17.220;2023-05-31T19:14:45;101931.22;;;18.03;52.76
54022;BME280;39936;51.058;17.220;2023-05-31T19:18:09;101940.24;;;17.60;51.81
54022;BME280;39936;51.058;17.220;2023-05-31T19:21:24;101935.49;;;17.29;52.08
54022;BME280;39936;51.058;17.220;2023-05-31T19:28:57;101938.39;;;16.64;57.39
54022;BME280;39936;51.058;17.220;2023-05-31T19:32:12;101947.05;;;16.35;56.78